createdAt,value
2022-07-29T00:02:53.000Z,0.00
2022-07-29T00:07:42.000Z,0.00
2022-07-29T00:12:36.000Z,0.00
2022-07-29T00:17:31.000Z,0.00
2022-07-29T00:22:26.000Z,0.00
2022-07-29T00:27:21.000Z,0.00
2022-07-29T00:32:16.000Z,0.00
2022-07-29T00:37:10.000Z,0.00
2022-07-29T00:42:05.000Z,0.00
2022-07-29T00:47:00.000Z,0.00
2022-07-29T00:51:55.000Z,0.00
2022-07-29T00:56:47.000Z,0.00
2022-07-29T01:01:43.000Z,0.00
2022-07-29T01:06:38.000Z,0.00
2022-07-29T01:11:32.000Z,0.00
2022-07-29T01:16:27.000Z,0.00
2022-07-29T01:21:21.000Z,0.00
2022-07-29T01:26:16.000Z,0.00
2022-07-29T01:31:11.000Z,0.00
2022-07-29T01:36:06.000Z,0.00
2022-07-29T01:41:00.000Z,0.00
2022-07-29T01:45:55.000Z,0.00
2022-07-29T01:50:49.000Z,0.00
2022-07-29T01:55:44.000Z,0.00
2022-07-29T02:00:39.000Z,0.00
2022-07-29T02:05:33.000Z,0.00
2022-07-29T02:10:28.000Z,0.00
2022-07-29T02:15:22.000Z,0.00
2022-07-29T02:20:17.000Z,0.00
2022-07-29T02:25:12.000Z,0.00
2022-07-29T02:30:06.000Z,0.00
2022-07-29T02:35:01.000Z,0.00
2022-07-29T02:39:55.000Z,0.00
2022-07-29T02:44:48.000Z,0.00
2022-07-29T02:49:43.000Z,0.00
2022-07-29T02:54:38.000Z,0.00
2022-07-29T02:59:33.000Z,0.00
2022-07-29T03:04:27.000Z,0.00
2022-07-29T03:09:22.000Z,0.00
2022-07-29T03:14:17.000Z,0.00
2022-07-29T03:19:12.000Z,0.00
2022-07-29T03:24:06.000Z,0.00
2022-07-29T03:29:01.000Z,0.83
2022-07-29T03:33:55.000Z,2.50
2022-07-29T03:38:47.000Z,5.00
2022-07-29T03:43:42.000Z,10.83
2022-07-29T03:48:37.000Z,18.33
2022-07-29T03:53:31.000Z,30.00
2022-07-29T03:58:26.000Z,43.33
2022-07-29T04:03:20.000Z,59.17
2022-07-29T04:08:15.000Z,77.50
2022-07-29T04:13:09.000Z,100.83
2022-07-29T04:18:04.000Z,132.50
2022-07-29T04:22:59.000Z,172.50
2022-07-29T04:27:53.000Z,217.50
2022-07-29T04:32:48.000Z,257.50
2022-07-29T04:37:42.000Z,297.50
2022-07-29T04:42:37.000Z,335.83
2022-07-29T04:47:32.000Z,377.50
2022-07-29T04:52:27.000Z,405.83
2022-07-29T04:57:23.000Z,442.50
2022-07-29T05:02:16.000Z,470.00
2022-07-29T05:07:11.000Z,499.17
2022-07-29T05:12:06.000Z,508.33
2022-07-29T05:17:01.000Z,558.33
2022-07-29T05:21:55.000Z,617.50
2022-07-29T05:26:50.000Z,612.50
2022-07-29T05:31:45.000Z,640.83
2022-07-29T05:36:40.000Z,700.00
2022-07-29T05:41:35.000Z,750.00
2022-07-29T05:46:30.000Z,740.00
2022-07-29T05:51:24.000Z,765.00
2022-07-29T05:56:18.000Z,793.33
2022-07-29T06:01:13.000Z,816.67
2022-07-29T06:06:08.000Z,891.67
2022-07-29T06:11:03.000Z,842.50
2022-07-29T06:15:57.000Z,918.33
2022-07-29T06:20:51.000Z,1041.67
2022-07-29T06:25:46.000Z,1073.33
2022-07-29T06:30:41.000Z,1036.67
2022-07-29T06:35:36.000Z,997.50
2022-07-29T06:40:31.000Z,949.17
2022-07-29T06:45:26.000Z,963.33
2022-07-29T06:50:20.000Z,897.50
2022-07-29T06:55:15.000Z,819.17
2022-07-29T07:00:10.000Z,935.00
2022-07-29T07:05:04.000Z,988.33
2022-07-29T07:09:59.000Z,1082.50
2022-07-29T07:14:53.000Z,995.83
2022-07-29T07:19:48.000Z,975.00
2022-07-29T07:24:46.000Z,1050.83
2022-07-29T07:29:36.000Z,1125.83
2022-07-29T07:34:31.000Z,1091.67
2022-07-29T07:39:26.000Z,1181.67
2022-07-29T07:44:20.000Z,1416.67
2022-07-29T07:49:15.000Z,1670.00
2022-07-29T07:54:10.000Z,2030.83
2022-07-29T07:59:05.000Z,1981.67
2022-07-29T08:04:01.000Z,2126.67
2022-07-29T08:08:56.000Z,2025.83
2022-07-29T08:13:51.000Z,2072.50
2022-07-29T08:18:46.000Z,2133.33
2022-07-29T08:23:41.000Z,2288.33
2022-07-29T08:28:36.000Z,2199.17
2022-07-29T08:33:31.000Z,2069.17
2022-07-29T08:38:26.000Z,2020.83
2022-07-29T08:43:21.000Z,1788.33
2022-07-29T08:48:16.000Z,1729.17
2022-07-29T08:53:10.000Z,1691.67
2022-07-29T08:58:05.000Z,1748.33
2022-07-29T09:03:00.000Z,1815.00
2022-07-29T09:07:54.000Z,1900.00
2022-07-29T09:12:49.000Z,1875.83
2022-07-29T09:17:43.000Z,2060.00
2022-07-29T09:22:37.000Z,2285.83
2022-07-29T09:27:32.000Z,2245.00
2022-07-29T09:37:21.000Z,2440.00
2022-07-29T09:42:15.000Z,2548.33
2022-07-29T09:47:09.000Z,3015.00
2022-07-29T09:52:03.000Z,3399.17
2022-07-29T09:56:58.000Z,3985.00
2022-07-29T10:01:52.000Z,3866.67
2022-07-29T10:06:47.000Z,5930.83
2022-07-29T10:11:44.000Z,5228.33
2022-07-29T10:16:39.000Z,4902.50
2022-07-29T10:21:35.000Z,6475.00
2022-07-29T10:26:31.000Z,4235.00
2022-07-29T10:31:25.000Z,6353.33
2022-07-29T10:36:20.000Z,6680.00
2022-07-29T10:41:16.000Z,5977.50
2022-07-29T10:46:12.000Z,6809.17
2022-07-29T10:51:07.000Z,7021.67
2022-07-29T10:56:01.000Z,5089.17
2022-07-29T11:00:56.000Z,6038.33
2022-07-29T11:05:50.000Z,7258.33
2022-07-29T11:10:44.000Z,6170.83
2022-07-29T11:15:39.000Z,6856.67
2022-07-29T11:20:34.000Z,7566.67
2022-07-29T11:25:29.000Z,7000.00
2022-07-29T11:30:25.000Z,7607.50
2022-07-29T11:35:19.000Z,7812.50
2022-07-29T11:40:15.000Z,7342.50
2022-07-29T11:45:10.000Z,6977.50
2022-07-29T11:50:05.000Z,6067.50
2022-07-29T11:54:59.000Z,5015.83
2022-07-29T11:59:53.000Z,4711.67
2022-07-29T12:04:47.000Z,4748.33
2022-07-29T12:09:41.000Z,3750.00
2022-07-29T12:14:35.000Z,4113.33
2022-07-29T12:19:29.000Z,4981.67
2022-07-29T12:24:23.000Z,5980.00
2022-07-29T12:29:18.000Z,4235.00
2022-07-29T12:34:10.000Z,5203.33
2022-07-29T12:39:05.000Z,4420.83
2022-07-29T12:44:00.000Z,4423.33
2022-07-29T12:48:54.000Z,3583.33
2022-07-29T12:53:49.000Z,2708.33
2022-07-29T12:58:45.000Z,3185.00
2022-07-29T13:03:37.000Z,4519.17
2022-07-29T13:08:31.000Z,5232.50
2022-07-29T13:13:27.000Z,5772.50
2022-07-29T13:18:22.000Z,7671.67
2022-07-29T13:23:18.000Z,8045.00
2022-07-29T13:28:12.000Z,5002.50
2022-07-29T13:33:07.000Z,7469.17
2022-07-29T13:38:02.000Z,8708.33
2022-07-29T13:42:55.000Z,5686.67
2022-07-29T13:47:49.000Z,7425.00
2022-07-29T13:52:43.000Z,6709.17
2022-07-29T13:57:38.000Z,3490.83
2022-07-29T14:02:31.000Z,4025.00
2022-07-29T14:07:24.000Z,7376.67
2022-07-29T14:12:19.000Z,10130.83
2022-07-29T14:17:14.000Z,5042.50
2022-07-29T14:22:09.000Z,7354.17
2022-07-29T14:27:04.000Z,5090.00
2022-07-29T14:31:58.000Z,2812.50
2022-07-29T14:36:52.000Z,2270.00
2022-07-29T14:41:46.000Z,2015.00
2022-07-29T14:46:40.000Z,2374.17
2022-07-29T14:51:34.000Z,2880.83
2022-07-29T14:56:28.000Z,4738.33
2022-07-29T15:01:23.000Z,5420.00
2022-07-29T15:06:19.000Z,10081.67
2022-07-29T15:11:15.000Z,9269.17
2022-07-29T15:16:11.000Z,9395.83
2022-07-29T15:21:06.000Z,8018.33
2022-07-29T15:26:01.000Z,8581.67
2022-07-29T15:30:56.000Z,8050.83
2022-07-29T15:35:49.000Z,8996.67
2022-07-29T15:40:44.000Z,9145.00
2022-07-29T15:45:39.000Z,8522.50
2022-07-29T15:50:34.000Z,6479.17
2022-07-29T15:55:29.000Z,8381.67
2022-07-29T16:00:23.000Z,7764.17
2022-07-29T16:05:18.000Z,8417.50
2022-07-29T16:10:13.000Z,8131.67
2022-07-29T16:15:07.000Z,7954.17
2022-07-29T16:20:02.000Z,7868.33
2022-07-29T16:24:57.000Z,7655.83
2022-07-29T16:29:51.000Z,7097.50
2022-07-29T16:34:46.000Z,7282.50
2022-07-29T16:39:40.000Z,7605.83
2022-07-29T16:44:35.000Z,7261.67
2022-07-29T16:49:29.000Z,7148.33
2022-07-29T16:54:24.000Z,6458.33
2022-07-29T16:59:19.000Z,5851.67
2022-07-29T17:04:13.000Z,4775.83
2022-07-29T17:09:07.000Z,4745.83
2022-07-29T17:14:02.000Z,4787.50
2022-07-29T17:18:56.000Z,4671.67
2022-07-29T17:23:49.000Z,3071.67
2022-07-29T17:28:43.000Z,4063.33
2022-07-29T17:33:38.000Z,1725.00
2022-07-29T17:38:32.000Z,1080.00
2022-07-29T17:43:26.000Z,724.17
2022-07-29T17:48:21.000Z,566.67
2022-07-29T17:53:15.000Z,459.17
2022-07-29T17:58:09.000Z,349.17
2022-07-29T18:03:03.000Z,286.67
2022-07-29T18:07:57.000Z,330.83
2022-07-29T18:12:51.000Z,438.33
2022-07-29T18:17:45.000Z,599.17
2022-07-29T18:22:40.000Z,389.17
2022-07-29T18:27:34.000Z,291.67
2022-07-29T18:32:29.000Z,285.83
2022-07-29T18:37:23.000Z,305.00
2022-07-29T18:42:18.000Z,287.50
2022-07-29T18:47:12.000Z,233.33
2022-07-29T18:52:07.000Z,200.00
2022-07-29T18:57:01.000Z,161.67
2022-07-29T19:01:55.000Z,107.50
2022-07-29T19:06:49.000Z,66.67
2022-07-29T19:11:43.000Z,40.00
2022-07-29T19:16:37.000Z,19.17
2022-07-29T19:21:31.000Z,15.00
2022-07-29T19:26:26.000Z,11.67
2022-07-29T19:31:21.000Z,7.50
2022-07-29T19:36:15.000Z,4.17
2022-07-29T19:41:09.000Z,2.50
2022-07-29T19:46:04.000Z,0.83
2022-07-29T19:50:59.000Z,0.00
2022-07-29T19:55:51.000Z,0.00
2022-07-29T20:00:46.000Z,0.00
2022-07-29T20:05:40.000Z,0.00
2022-07-29T20:10:34.000Z,0.00
2022-07-29T20:15:28.000Z,0.00
2022-07-29T20:20:23.000Z,0.00
2022-07-29T20:25:17.000Z,0.00
2022-07-29T20:30:12.000Z,0.00
2022-07-29T20:35:06.000Z,0.00
2022-07-29T20:40:00.000Z,0.00
2022-07-29T20:44:52.000Z,0.00
2022-07-29T20:49:47.000Z,0.00
2022-07-29T20:54:41.000Z,0.00
2022-07-29T20:59:35.000Z,0.00
2022-07-29T21:04:30.000Z,0.00
2022-07-29T21:09:24.000Z,0.00
2022-07-29T21:14:19.000Z,0.00
2022-07-29T21:19:13.000Z,0.00
2022-07-29T21:24:08.000Z,0.00
2022-07-29T21:29:02.000Z,0.00
2022-07-29T21:33:57.000Z,0.00
2022-07-29T21:38:51.000Z,0.00
2022-07-29T21:43:45.000Z,0.00
2022-07-29T21:48:39.000Z,0.00
2022-07-29T21:53:33.000Z,0.00
2022-07-29T21:58:28.000Z,0.00
2022-07-29T22:03:23.000Z,0.00
2022-07-29T22:08:18.000Z,0.00
2022-07-29T22:13:10.000Z,0.00
2022-07-29T22:18:04.000Z,0.00
2022-07-29T22:22:59.000Z,0.00
2022-07-29T22:27:52.000Z,0.00
2022-07-29T22:32:47.000Z,0.00
2022-07-29T22:37:42.000Z,0.00
2022-07-29T22:42:36.000Z,0.00
2022-07-29T22:47:31.000Z,0.00
2022-07-29T22:52:26.000Z,0.00
2022-07-29T22:57:21.000Z,0.00
2022-07-29T23:02:15.000Z,0.00
2022-07-29T23:07:10.000Z,0.00
2022-07-29T23:12:05.000Z,0.00
2022-07-29T23:16:59.000Z,0.00
2022-07-29T23:21:53.000Z,0.00
2022-07-29T23:26:49.000Z,0.00
2022-07-29T23:31:43.000Z,0.00
2022-07-29T23:36:38.000Z,0.00
2022-07-29T23:41:33.000Z,0.00
2022-07-29T23:46:27.000Z,0.00
2022-07-29T23:51:22.000Z,0.00
2022-07-29T23:56:17.000Z,0.00
